Time;durP1;ratioP1;P1;durP2;ratioP2;P2;SDS_P1;SDS_P2;PMS_P1;PMS_P2;Temp;Humidity;BMP_temperature;BMP_pressure;BME280_temperature;BME280_humidity;BME280_pressure;Samples;Min_cycle;Max_cycle;Signal;HPM_P1;HPM_P2
2022/04/20 00:02:01;;;;;;;9.80;8.80;;;;;;;4.99;100.00;99300.81;5133119;27;20198;-54
2022/04/20 00:04:28;;;;;;;9.23;8.50;;;;;;;5.05;100.00;99300.78;5133022;27;20728;-54
2022/04/20 00:06:55;;;;;;;9.40;8.60;;;;;;;5.06;100.00;99302.47;5133396;27;20621;-55
2022/04/20 00:09:22;;;;;;;9.20;8.33;;;;;;;5.05;100.00;99311.06;5132781;27;20186;-53
2022/04/20 00:11:49;;;;;;;8.97;8.17;;;;;;;4.97;100.00;99307.69;5132984;27;20691;-54
2022/04/20 00:14:16;;;;;;;8.73;7.93;;;;;;;4.99;100.00;99307.69;5132766;27;20694;-55
2022/04/20 00:16:44;;;;;;;8.37;7.67;;;;;;;5.00;100.00;99302.53;5130234;27;20198;-55
2022/04/20 00:19:11;;;;;;;8.33;7.57;;;;;;;4.87;100.00;99310.34;5132335;27;20229;-54
2022/04/20 00:21:38;;;;;;;8.87;7.43;;;;;;;4.78;100.00;99305.31;5132706;27;20202;-54
2022/04/20 00:24:06;;;;;;;8.60;7.83;;;;;;;4.68;100.00;99305.38;5132694;27;20198;-54
2022/04/20 00:26:33;;;;;;;8.73;8.03;;;;;;;4.67;100.00;99306.25;5132756;27;20284;-56
2022/04/20 00:28:59;;;;;;;10.00;8.17;;;;;;;4.60;100.00;99304.59;5132471;27;20186;-54
2022/04/20 00:31:26;;;;;;;8.43;7.73;;;;;;;4.58;100.00;99314.03;5132318;27;20205;-54
2022/04/20 00:33:55;;;;;;;8.67;7.63;;;;;;;4.62;100.00;99320.88;5132393;27;20226;-56
2022/04/20 00:36:22;;;;;;;8.20;7.50;;;;;;;4.66;100.00;99316.53;5132460;27;20611;-55
2022/04/20 00:38:49;;;;;;;8.97;8.07;;;;;;;4.61;100.00;99328.59;5132365;27;20214;-57
2022/04/20 00:41:15;;;;;;;9.37;7.93;;;;;;;4.59;100.00;99325.19;5132300;27;20208;-56
2022/04/20 00:43:43;;;;;;;8.13;7.43;;;;;;;4.56;100.00;99320.06;5132118;27;20197;-56
2022/04/20 00:46:10;;;;;;;8.40;7.70;;;;;;;4.68;100.00;99330.25;5132194;27;20198;-54
2022/04/20 00:48:38;;;;;;;8.03;7.30;;;;;;;4.70;100.00;99326.81;5132025;27;20236;-53
2022/04/20 00:51:06;;;;;;;7.67;7.07;;;;;;;4.62;100.00;99320.88;5132435;27;20196;-55
2022/04/20 00:53:33;;;;;;;6.77;6.27;;;;;;;4.56;100.00;99314.91;5132271;27;20190;-55
2022/04/20 00:56:00;;;;;;;8.50;7.70;;;;;;;4.48;100.00;99306.41;5132097;27;20271;-60
2022/04/20 00:58:27;;;;;;;7.47;6.83;;;;;;;4.64;100.00;99313.97;5131671;27;20203;-54
2022/04/20 01:00:54;;;;;;;8.20;7.50;;;;;;;4.65;100.00;99312.25;5131899;27;20194;-55
2022/04/20 01:03:21;;;;;;;8.50;7.70;;;;;;;4.65;100.00;99315.69;5131980;27;20194;-54
2022/04/20 01:05:48;;;;;;;7.43;6.83;;;;;;;4.68;100.00;99315.66;5131998;27;20593;-55
2022/04/20 01:08:16;;;;;;;7.70;7.10;;;;;;;4.73;100.00;99313.94;5131666;27;20220;-55
2022/04/20 01:10:43;;;;;;;8.33;7.23;;;;;;;4.72;100.00;99316.50;5131653;27;20226;-55
2022/04/20 01:13:11;;;;;;;7.63;7.10;;;;;;;4.67;100.00;99321.69;5131621;27;20288;-57
2022/04/20 01:15:38;;;;;;;7.50;6.90;;;;;;;4.60;100.00;99316.59;5131816;27;20198;-55
2022/04/20 01:18:12;;;;;;;7.13;6.53;;;;;;;4.61;100.00;99318.31;5131913;27;20197;-54
2022/04/20 01:20:41;;;;;;;7.13;6.47;;;;;;;4.62;100.00;99314.88;5131641;27;20213;-55
2022/04/20 01:23:08;;;;;;;7.30;6.73;;;;;;;4.64;100.00;99313.97;5131639;27;20190;-55
2022/04/20 01:25:35;;;;;;;7.37;6.77;;;;;;;4.67;100.00;99315.69;5131023;27;20197;-55
2022/04/20 01:28:02;;;;;;;7.97;7.13;;;;;;;4.68;100.00;99309.69;5131299;27;20204;-54
2022/04/20 01:30:30;;;;;;;7.07;6.57;;;;;;;4.68;100.00;99300.25;5131349;27;20727;-54
2022/04/20 01:32:57;;;;;;;7.50;6.80;;;;;;;4.61;100.00;99290.03;5131211;27;20194;-54
2022/04/20 01:35:25;;;;;;;7.03;6.53;;;;;;;4.78;100.00;99302.72;5130899;27;20600;-56
2022/04/20 01:37:53;;;;;;;7.27;6.50;;;;;;;4.83;100.00;99293.28;5130876;27;20213;-54
2022/04/20 01:40:20;;;;;;;7.07;6.47;;;;;;;4.83;100.00;99301.84;5131039;27;20244;-55
2022/04/20 01:42:47;;;;;;;7.23;6.63;;;;;;;4.80;100.00;99304.44;5131186;27;20197;-53
2022/04/20 01:45:14;;;;;;;8.53;7.73;;;;;;;4.68;100.00;99307.09;5131018;27;20200;-53
2022/04/20 01:47:41;;;;;;;8.30;7.10;;;;;;;4.56;100.00;99305.50;5131333;27;20582;-55
2022/04/20 01:50:08;;;;;;;8.23;7.20;;;;;;;4.55;100.00;99302.94;5130936;27;20597;-55
2022/04/20 01:52:35;;;;;;;7.43;6.73;;;;;;;4.43;100.00;99300.44;5130823;27;20226;-55
2022/04/20 01:55:04;;;;;;;7.50;6.80;;;;;;;4.34;100.00;99302.22;5131232;27;20635;-54
2022/04/20 01:57:31;;;;;;;7.30;6.80;;;;;;;4.27;100.00;99307.44;5130993;27;20204;-54
2022/04/20 01:59:58;;;;;;;7.13;6.53;;;;;;;4.30;100.00;99305.69;5131061;28;20251;-53
2022/04/20 02:02:38;;;;;;;7.50;6.90;;;;;;;4.30;100.00;99291.97;5130893;27;20215;-54
2022/04/20 02:05:06;;;;;;;7.90;7.27;;;;;;;4.34;100.00;99297.09;5128488;28;20301;-55
2022/04/20 02:07:33;;;;;;;7.57;6.90;;;;;;;4.33;100.00;99291.97;5129275;28;20225;-53
2022/04/20 02:10:01;;;;;;;11.60;8.57;;;;;;;4.32;100.00;99295.41;5130091;27;20701;-55
2022/04/20 02:12:29;;;;;;;9.67;8.60;;;;;;;4.34;100.00;99294.53;5129308;28;20194;-54
2022/04/20 02:14:56;;;;;;;10.13;9.07;;;;;;;4.29;100.00;99292.84;5129509;27;20193;-55
2022/04/20 02:17:23;;;;;;;13.67;9.13;;;;;;;4.23;100.00;99286.03;5126383;28;20190;-56
2022/04/20 02:19:51;;;;;;;10.67;9.60;;;;;;;4.40;100.00;99296.22;5129941;27;20210;-55
2022/04/20 02:22:18;;;;;;;13.93;10.27;;;;;;;4.55;100.00;99295.22;5129882;28;20767;-54
2022/04/20 02:24:45;;;;;;;12.77;10.80;;;;;;;4.63;100.00;99296.00;5129658;28;20277;-55
2022/04/20 02:27:13;;;;;;;13.70;11.10;;;;;;;4.52;100.00;99303.78;5129324;28;20194;-52
2022/04/20 02:29:41;;;;;;;15.53;11.27;;;;;;;4.48;100.00;99296.16;5129863;28;20722;-55
2022/04/20 02:32:09;;;;;;;12.43;11.03;;;;;;;4.48;100.00;99311.56;5131047;28;20200;-54
2022/04/20 02:34:36;;;;;;;13.70;11.97;;;;;;;4.48;100.00;99311.56;5130521;28;20201;-56
2022/04/20 02:37:05;;;;;;;13.17;11.00;;;;;;;4.50;100.00;99315.84;5130687;28;20190;-54
2022/04/20 02:39:32;;;;;;;14.20;11.50;;;;;;;4.51;100.00;99302.13;5130194;28;20223;-54
2022/04/20 02:41:59;;;;;;;12.83;11.43;;;;;;;4.45;100.00;99299.59;5130561;28;20198;-53
2022/04/20 02:44:26;;;;;;;14.00;10.70;;;;;;;4.41;100.00;99309.88;5130344;28;20190;-54
2022/04/20 02:46:55;;;;;;;13.60;11.90;;;;;;;4.37;100.00;99304.78;5130230;27;20202;-52
2022/04/20 02:49:22;;;;;;;14.67;12.50;;;;;;;4.28;100.00;99310.00;5132875;27;20290;-54
2022/04/20 02:51:49;;;;;;;13.50;12.00;;;;;;;4.32;100.00;99310.81;5134385;27;20194;-52
2022/04/20 02:54:16;;;;;;;16.07;12.83;;;;;;;4.37;100.00;99315.06;5134287;27;20194;-54
2022/04/20 02:56:43;;;;;;;13.53;11.77;;;;;;;4.37;100.00;99315.06;5134439;27;20198;-55
2022/04/20 02:59:10;;;;;;;16.70;13.57;;;;;;;4.41;100.00;99320.16;5134044;27;20207;-55
2022/04/20 03:01:37;;;;;;;18.13;14.10;;;;;;;4.39;100.00;99320.19;5133827;27;20201;-56
2022/04/20 03:04:05;;;;;;;16.23;13.53;;;;;;;4.28;100.00;99314.28;5134070;27;20203;-55
2022/04/20 03:06:32;;;;;;;19.67;14.63;;;;;;;4.41;100.00;99325.31;5134061;27;20258;-55
2022/04/20 03:09:00;;;;;;;18.97;13.80;;;;;;;4.45;100.00;99327.84;5133791;27;20208;-55
2022/04/20 03:11:27;;;;;;;17.33;13.97;;;;;;;4.38;100.00;99331.34;5133757;27;20258;-54
2022/04/20 03:13:54;;;;;;;21.57;15.87;;;;;;;4.28;100.00;99327.97;5129498;27;20214;-54
2022/04/20 03:16:21;;;;;;;23.43;16.33;;;;;;;4.11;100.00;99329.78;5112609;28;20317;-54
2022/04/20 03:18:48;;;;;;;21.27;16.23;;;;;;;4.10;100.00;99322.09;5112850;28;20222;-56
2022/04/20 03:21:17;;;;;;;24.90;18.47;;;;;;;4.16;100.00;99329.78;5132563;27;20640;-55
2022/04/20 03:23:44;;;;;;;22.90;18.20;;;;;;;4.17;100.00;99319.50;5133729;27;20731;-54
2022/04/20 03:26:11;;;;;;;26.00;18.70;;;;;;;4.23;100.00;99327.13;5132635;27;20214;-54
2022/04/20 03:28:38;;;;;;;24.67;18.60;;;;;;;4.12;100.00;99334.06;5133290;27;20244;-52
2022/04/20 03:31:06;;;;;;;27.90;20.07;;;;;;;4.09;100.00;99339.22;5133239;27;20304;-54
2022/04/20 03:33:33;;;;;;;28.93;20.33;;;;;;;4.15;100.00;99341.75;5133555;27;20746;-54
2022/04/20 03:36:00;;;;;;;29.10;20.43;;;;;;;4.00;100.00;99303.31;5133188;27;20680;-54
2022/04/20 03:38:28;;;;;;;32.40;20.03;;;;;;;4.27;100.00;99333.13;5133015;27;20225;-53
2022/04/20 03:40:55;;;;;;;33.87;21.43;;;;;;;4.14;100.00;99337.47;5132242;27;20308;-54
2022/04/20 03:43:23;;;;;;;43.33;24.23;;;;;;;4.19;100.00;99342.56;5132340;27;20224;-55
2022/04/20 03:45:50;;;;;;;45.50;25.97;;;;;;;4.09;100.00;99353.75;5131823;27;20217;-56
2022/04/20 03:48:17;;;;;;;45.87;25.87;;;;;;;4.00;100.00;99350.38;5131081;27;20279;-55
2022/04/20 03:50:44;;;;;;;41.40;25.57;;;;;;;3.90;100.00;99355.59;5131822;27;20239;-55
2022/04/20 03:53:11;;;;;;;42.43;25.43;;;;;;;3.89;100.00;99348.72;5130970;27;20222;-55
2022/04/20 03:55:40;;;;;;;46.13;26.10;;;;;;;3.93;100.00;99350.44;5130881;27;20228;-55
2022/04/20 03:58:07;;;;;;;47.67;25.83;;;;;;;3.92;100.00;99346.16;5131081;27;20217;-54
2022/04/20 04:00:34;;;;;;;47.97;26.83;;;;;;;3.85;100.00;99353.03;5139868;27;20221;-54
2022/04/20 04:03:01;;;;;;;43.63;26.73;;;;;;;3.87;100.00;99353.88;5137669;27;20305;-54
2022/04/20 04:05:28;;;;;;;52.57;26.60;;;;;;;3.84;100.00;99361.56;5153244;27;20259;-54
2022/04/20 04:07:55;;;;;;;43.03;26.23;;;;;;;3.91;100.00;99363.28;5153070;27;20220;-55
2022/04/20 04:10:22;;;;;;;45.73;24.87;;;;;;;4.09;100.00;99359.75;5134304;27;20227;-55
2022/04/20 04:12:50;;;;;;;41.03;22.83;;;;;;;4.31;100.00;99358.78;5139895;27;20210;-55
2022/04/20 04:15:17;;;;;;;32.33;20.80;;;;;;;4.74;100.00;99361.88;5129109;27;20308;-55
2022/04/20 04:17:48;;;;;;;31.87;20.03;;;;;;;5.62;100.00;99355.06;5130625;27;20674;-56
2022/04/20 04:20:15;;;;;;;24.40;16.80;;;;;;;6.90;100.00;99358.41;5130773;27;20278;-54
2022/04/20 04:22:42;;;;;;;26.60;16.90;;;;;;;8.03;100.00;99363.16;5130458;27;20213;-55
2022/04/20 04:25:10;;;;;;;21.80;16.30;;;;;;;9.17;100.00;99357.09;5127657;27;20218;-55
2022/04/20 04:27:37;;;;;;;24.47;16.97;;;;;;;10.48;100.00;99376.78;5130846;27;20228;-55
2022/04/20 04:30:06;;;;;;;20.77;15.60;;;;;;;11.61;97.32;99371.28;5130899;27;20217;-54
2022/04/20 04:32:33;;;;;;;21.67;15.30;;;;;;;12.52;91.39;99383.53;5131189;27;20281;-56
2022/04/20 04:35:00;;;;;;;29.50;15.67;;;;;;;13.62;86.62;99387.69;5131582;27;20194;-54
2022/04/20 04:37:28;;;;;;;20.77;15.07;;;;;;;14.28;82.26;99387.38;5131325;27;20208;-54
2022/04/20 04:39:54;;;;;;;19.13;14.30;;;;;;;14.84;79.01;99384.75;5131532;27;20638;-54
2022/04/20 04:42:21;;;;;;;22.83;16.43;;;;;;;15.71;73.69;99380.41;5130002;27;20206;-58
2022/04/20 04:44:48;;;;;;;24.50;17.50;;;;;;;16.48;70.31;99381.44;5132553;27;20220;-58
2022/04/20 04:50:01;;;;;;;26.30;18.30;;;;;;;17.69;59.87;99380.66;5131964;27;20232;-59
2022/04/20 04:52:29;;;;;;;31.90;18.17;;;;;;;18.26;56.04;99380.66;5132180;27;20197;-58
2022/04/20 04:54:56;;;;;;;28.77;18.63;;;;;;;18.28;55.52;99381.44;5131841;27;20197;-58
2022/04/20 04:57:23;;;;;;;33.60;18.53;;;;;;;18.41;54.72;99382.31;5132135;27;20748;-54
2022/04/20 04:59:50;;;;;;;28.40;17.23;;;;;;;19.00;52.93;99391.69;5132081;27;20212;-54
2022/04/20 05:02:18;;;;;;;29.13;17.75;;;;;;;19.80;50.39;99395.13;5131321;27;20234;-54
2022/04/20 05:04:45;;;;;;;27.52;17.48;;;;;;;20.16;48.46;99395.22;5128823;27;20204;-55
2022/04/20 05:07:12;;;;;;;26.73;14.95;;;;;;;20.03;46.68;99389.09;5130358;27;20204;-54
2022/04/20 05:09:39;;;;;;;25.15;14.52;;;;;;;19.96;46.38;99382.59;5130411;27;20194;-54
2022/04/20 05:12:07;;;;;;;17.08;13.98;;;;;;;19.94;45.81;99384.47;5130109;27;20591;-54
2022/04/20 05:14:37;;;;;;;19.10;12.95;;;;;;;19.92;45.92;99387.22;5130300;27;20281;-53
2022/04/20 05:17:04;;;;;;;19.52;14.23;;;;;;;19.82;45.91;99386.16;5130667;27;20197;-54
2022/04/20 05:19:34;;;;;;;25.58;16.27;;;;;;;19.79;45.93;99390.78;5130460;27;20289;-54
2022/04/20 05:22:01;;;;;;;31.10;19.20;;;;;;;19.79;45.78;99375.00;5130127;27;20217;-54
2022/04/20 05:24:28;;;;;;;25.35;17.25;;;;;;;19.97;45.68;99383.44;5131337;27;20201;-53
2022/04/20 05:26:55;;;;;;;19.33;15.15;;;;;;;20.22;44.79;99386.00;5131452;27;20277;-54
2022/04/20 05:29:22;;;;;;;22.58;15.18;;;;;;;20.03;46.26;99377.72;5131282;27;20220;-54
2022/04/20 05:31:52;;;;;;;23.63;15.85;;;;;;;19.92;46.44;99381.94;5131374;27;20190;-54
2022/04/20 05:34:19;;;;;;;29.98;16.20;;;;;;;20.33;45.18;99390.53;5131369;27;20197;-54
2022/04/20 05:42:18;;;;;;;13.35;12.00;;;;;;;21.28;43.17;99374.81;5131177;27;20810;-54
2022/04/20 05:44:46;;;;;;;13.60;10.52;;;;;;;22.08;41.27;99365.97;5131079;27;20242;-54
2022/04/20 05:47:13;;;;;;;17.45;10.07;;;;;;;21.80;41.56;99360.25;5131107;27;20194;-55
2022/04/20 05:49:41;;;;;;;15.43;11.50;;;;;;;20.93;42.94;99354.50;5130842;27;20328;-55
2022/04/20 05:52:09;;;;;;;18.17;11.75;;;;;;;19.90;44.74;99361.91;5130892;27;20186;-57
2022/04/20 05:54:36;;;;;;;15.48;11.52;;;;;;;18.56;47.82;99365.59;5131248;27;20190;-58
2022/04/20 05:57:03;;;;;;;13.60;10.30;;;;;;;17.42;50.36;99370.84;5130976;27;20194;-58
2022/04/20 05:59:30;;;;;;;14.45;10.90;;;;;;;16.65;53.86;99367.47;5131038;27;20286;-59
2022/04/20 06:01:57;;;;;;;14.10;10.27;;;;;;;15.19;57.08;99362.94;5130917;27;20224;-58
2022/04/20 06:04:25;;;;;;;11.60;10.40;;;;;;;14.49;59.02;99358.53;5130954;28;20733;-57
2022/04/20 06:06:52;;;;;;;13.40;12.00;;;;;;;13.87;62.00;99352.72;5130850;28;20662;-56
2022/04/20 06:09:20;;;;;;;14.37;11.60;;;;;;;13.18;65.01;99347.03;5130676;28;20292;-56
2022/04/20 06:11:48;;;;;;;15.07;11.77;;;;;;;12.65;67.85;99334.41;5130789;28;20182;-56
2022/04/20 06:14:15;;;;;;;13.77;11.23;;;;;;;11.92;69.68;99332.06;5130718;28;20205;-56
2022/04/20 06:16:42;;;;;;;11.73;10.27;;;;;;;11.72;70.80;99327.56;5131002;28;20591;-55
2022/04/20 06:19:09;;;;;;;11.77;10.57;;;;;;;11.65;71.79;99310.47;5130758;28;20280;-55
2022/04/20 06:21:35;;;;;;;13.77;10.57;;;;;;;11.11;73.76;99314.13;5129502;27;20224;-56
2022/04/20 06:24:02;;;;;;;13.80;10.83;;;;;;;10.94;75.60;99318.19;5134801;27;20193;-56
2022/04/20 06:26:31;;;;;;;14.13;12.00;;;;;;;10.64;78.07;99318.28;5134796;27;20200;-56
2022/04/20 06:28:58;;;;;;;13.33;11.90;;;;;;;10.60;77.54;99300.28;5134954;27;20217;-57
2022/04/20 06:31:24;;;;;;;14.60;11.70;;;;;;;10.65;78.13;99304.41;5134830;27;20277;-56
2022/04/20 06:33:57;;;;;;;20.33;12.53;;;;;;;10.42;77.79;99271.41;5134485;27;20201;-54
2022/04/20 06:36:25;;;;;;;17.80;12.97;;;;;;;10.60;79.00;99306.31;5134681;27;20198;-53
2022/04/20 06:38:51;;;;;;;16.03;13.00;;;;;;;10.52;79.83;99303.09;5134530;27;20205;-55
2022/04/20 06:41:19;;;;;;;16.70;13.73;;;;;;;10.22;81.07;99304.91;5134299;27;20218;-55
2022/04/20 06:43:47;;;;;;;19.63;13.93;;;;;;;9.76;83.84;99297.63;5134500;27;20197;-55
2022/04/20 06:46:14;;;;;;;22.13;14.23;;;;;;;9.66;84.64;99303.97;5134595;27;20590;-56
2022/04/20 06:48:41;;;;;;;15.97;13.67;;;;;;;9.88;83.81;99311.97;5133925;27;20236;-55
2022/04/20 06:51:08;;;;;;;18.80;13.60;;;;;;;9.86;84.70;99321.53;5134328;27;20193;-56
2022/04/20 06:59:04;;;;;;;25.03;15.50;;;;;;;9.84;88.10;99332.78;5134255;27;20250;-56
2022/04/20 07:01:31;;;;;;;20.70;15.83;;;;;;;9.69;88.13;99329.81;5134061;27;20716;-54
2022/04/20 07:03:59;;;;;;;23.73;16.17;;;;;;;9.56;88.83;99325.84;5134068;27;20645;-54
2022/04/20 07:06:27;;;;;;;25.10;17.43;;;;;;;9.54;89.50;99325.03;5133700;27;20277;-54
2022/04/20 07:08:54;;;;;;;25.30;17.80;;;;;;;9.35;90.66;99327.28;5133549;27;20209;-55
2022/04/20 07:11:21;;;;;;;27.77;17.27;;;;;;;9.06;91.65;99336.66;5133450;27;20198;-55
2022/04/20 07:13:48;;;;;;;23.53;17.07;;;;;;;9.20;93.28;99336.31;5133859;27;20193;-54
2022/04/20 07:16:17;;;;;;;23.97;17.40;;;;;;;9.35;92.68;99333.31;5134078;27;20198;-53
2022/04/20 07:18:43;;;;;;;25.53;17.20;;;;;;;9.32;93.07;99325.63;5133765;27;20289;-56
2022/04/20 07:21:10;;;;;;;32.73;18.40;;;;;;;9.20;94.62;99314.75;5133692;27;20228;-55
2022/04/20 07:23:38;;;;;;;30.60;18.27;;;;;;;9.10;96.46;99319.31;5133524;27;20646;-56
2022/04/20 07:26:04;;;;;;;26.60;18.97;;;;;;;9.09;96.13;99318.47;5133418;27;20254;-53
2022/04/20 07:28:32;;;;;;;29.47;18.10;;;;;;;9.00;96.59;99307.50;5133521;27;20193;-55
2022/04/20 07:31:01;;;;;;;25.87;18.57;;;;;;;9.11;97.14;99326.19;5133766;27;20197;-55
2022/04/20 07:33:29;;;;;;;34.87;20.60;;;;;;;9.27;95.72;99321.44;5132987;27;20325;-56
2022/04/20 07:35:56;;;;;;;24.07;18.43;;;;;;;9.31;95.52;99325.66;5133155;27;20208;-56
2022/04/20 07:38:25;;;;;;;27.10;18.97;;;;;;;9.39;94.72;99324.56;5133282;27;20208;-56
2022/04/20 07:40:53;;;;;;;28.87;19.20;;;;;;;9.22;96.49;99318.16;5133162;27;20221;-56
2022/04/20 07:43:19;;;;;;;26.07;18.27;;;;;;;9.24;96.80;99322.41;5133364;27;20554;-56
2022/04/20 07:45:46;;;;;;;24.23;18.20;;;;;;;9.21;97.12;99324.22;5132944;27;20194;-55
2022/04/20 07:48:13;;;;;;;26.00;17.57;;;;;;;8.99;97.78;99318.75;5132964;27;20238;-56
2022/04/20 07:50:41;;;;;;;26.97;18.07;;;;;;;8.85;98.92;99315.63;5133038;27;20692;-53
2022/04/20 07:53:08;;;;;;;24.83;18.43;;;;;;;9.00;96.94;99312.69;5133074;27;20190;-54
2022/04/20 07:55:37;;;;;;;26.77;17.97;;;;;;;9.14;96.81;99313.19;5132956;27;20196;-53
2022/04/20 07:58:04;;;;;;;23.00;18.13;;;;;;;9.13;98.10;99301.13;5133270;27;20201;-55
2022/04/20 08:00:31;;;;;;;29.97;18.20;;;;;;;9.10;98.64;99304.63;5132983;27;20204;-53
2022/04/20 08:03:10;;;;;;;25.97;19.93;;;;;;;8.83;100.00;99314.81;5132961;27;20228;-52
2022/04/20 08:05:37;;;;;;;25.10;18.70;;;;;;;8.87;100.00;99312.13;5132641;27;20197;-54
2022/04/20 08:08:06;;;;;;;26.07;17.10;;;;;;;9.04;100.00;99314.28;5132990;27;20266;-53
2022/04/20 08:10:33;;;;;;;23.50;18.63;;;;;;;8.88;100.00;99323.34;5133094;27;20661;-56
2022/04/20 08:14:09;;;;;;;24.07;19.23;;;;;;;9.03;100.00;99330.69;5133015;27;20194;-56
2022/04/20 08:15:48;;;;;;;21.17;18.20;;;;;;;9.26;100.00;99323.19;5132531;27;20197;-56
2022/04/20 08:18:15;;;;;;;31.57;19.63;;;;;;;9.28;100.00;99318.81;5132224;27;20208;-57
2022/04/20 08:20:42;;;;;;;23.90;18.07;;;;;;;9.29;100.00;99315.34;5132236;27;20197;-53
2022/04/20 08:23:10;;;;;;;28.33;20.13;;;;;;;9.40;99.58;99313.31;5132540;27;20197;-53
2022/04/20 08:25:37;;;;;;;26.67;20.37;;;;;;;9.63;98.64;99314.41;5132172;27;20280;-53
2022/04/20 08:28:04;;;;;;;25.17;20.00;;;;;;;9.77;96.57;99317.47;5132524;27;20198;-53
2022/04/20 08:30:31;;;;;;;22.30;19.30;;;;;;;9.76;96.07;99314.03;5132154;27;20197;-53
2022/04/20 08:32:58;;;;;;;28.93;21.20;;;;;;;9.70;97.44;99315.97;5132392;27;20190;-53
2022/04/20 08:35:25;;;;;;;33.90;22.67;;;;;;;9.68;97.48;99313.41;5130899;27;20220;-53
2022/04/20 08:37:52;;;;;;;26.87;20.83;;;;;;;9.58;100.00;99305.94;5131239;27;20211;-53
2022/04/20 08:40:20;;;;;;;29.20;21.53;;;;;;;9.53;100.00;99318.16;5131180;27;20229;-55
2022/04/20 08:42:50;;;;;;;27.90;21.87;;;;;;;9.39;100.00;99324.56;5131225;27;20586;-56
2022/04/20 08:45:18;;;;;;;25.87;21.43;;;;;;;9.38;100.00;99322.00;5128128;27;20197;-57
2022/04/20 08:47:46;;;;;;;27.90;21.17;;;;;;;9.42;100.00;99327.06;5130548;27;20261;-56
2022/04/20 08:50:13;;;;;;;29.13;21.07;;;;;;;9.31;100.00;99321.34;5130244;27;20235;-56
2022/04/20 08:52:42;;;;;;;26.03;20.80;;;;;;;9.20;100.00;99317.31;5130065;27;20205;-53
2022/04/20 08:55:10;;;;;;;29.60;21.80;;;;;;;9.14;100.00;99313.19;5127362;27;20198;-53
2022/04/20 08:57:40;;;;;;;24.47;20.27;;;;;;;9.11;100.00;99310.66;5130257;27;20196;-54
2022/04/20 09:00:10;;;;;;;28.57;21.20;;;;;;;9.05;100.00;99300.44;5130618;27;20194;-54
2022/04/20 09:02:38;;;;;;;24.97;20.90;;;;;;;9.04;100.00;99294.41;5130344;27;20210;-53
2022/04/20 09:05:06;;;;;;;28.57;21.20;;;;;;;9.13;100.00;99288.19;5130125;27;20200;-52
2022/04/20 09:07:33;;;;;;;26.10;20.43;;;;;;;9.05;100.00;99290.09;5130262;27;20277;-53
2022/04/20 09:10:01;;;;;;;26.60;21.27;;;;;;;8.86;100.00;99300.06;5130296;27;20244;-56
2022/04/20 09:12:29;;;;;;;25.83;21.47;;;;;;;8.82;100.00;99301.03;5129915;27;20194;-57
2022/04/20 09:15:00;;;;;;;30.13;22.43;;;;;;;8.71;100.00;99298.72;5129914;27;20218;-57
2022/04/20 09:17:29;;;;;;;25.90;22.10;;;;;;;8.72;100.00;99300.41;5130133;27;20205;-56
2022/04/20 09:19:58;;;;;;;28.87;22.93;;;;;;;8.72;100.00;99307.31;5129574;27;20190;-55
2022/04/20 09:22:27;;;;;;;28.43;22.13;;;;;;;8.82;100.00;99298.44;5129322;27;20209;-56
2022/04/20 09:24:59;;;;;;;27.80;23.47;;;;;;;8.63;100.00;99294.63;5129779;27;20186;-56
2022/04/20 09:27:27;;;;;;;27.00;22.83;;;;;;;8.52;100.00;99286.28;5129859;27;20691;-56
2022/04/20 09:29:55;;;;;;;33.00;24.50;;;;;;;8.64;100.00;99299.75;5129945;27;20197;-56
2022/04/20 09:32:38;;;;;;;30.00;23.00;;;;;;;8.63;100.00;99287.72;5129745;27;20221;-53
2022/04/20 09:35:07;;;;;;;31.07;25.20;;;;;;;8.81;100.00;99291.56;5129183;27;20190;-56
2022/04/20 09:37:36;;;;;;;31.53;24.40;;;;;;;8.92;100.00;99283.53;5129864;27;20657;-56
2022/04/20 09:40:05;;;;;;;33.17;24.77;;;;;;;8.82;100.00;99271.72;5129708;27;20269;-56
2022/04/20 09:42:35;;;;;;;33.27;24.93;;;;;;;8.83;100.00;99273.41;5124623;27;20214;-57
2022/04/20 09:45:03;;;;;;;36.40;26.50;;;;;;;8.84;100.00;99272.53;5126957;27;20202;-57
2022/04/20 09:50:22;;;;;;;33.60;25.80;;;;;;;8.79;100.00;99270.09;5127673;27;20715;-57
2022/04/20 09:52:52;;;;;;;31.23;26.23;;;;;;;8.82;100.00;99271.72;5129626;27;20190;-57
2022/04/20 09:55:28;;;;;;;31.40;26.27;;;;;;;8.73;100.00;99259.88;5129521;27;20201;-53
2022/04/20 09:58:10;;;;;;;34.23;25.53;;;;;;;8.75;100.00;99250.34;5126979;27;20204;-53
2022/04/20 10:00:39;;;;;;;33.67;26.37;;;;;;;8.97;100.00;99255.81;5127477;27;20186;-53
2022/04/20 10:03:06;;;;;;;32.83;26.87;;;;;;;9.15;100.00;99255.28;5129360;27;20221;-54
2022/04/20 10:05:36;;;;;;;32.17;24.93;;;;;;;9.28;100.00;99248.03;5129224;27;20582;-55
2022/04/20 10:08:04;;;;;;;34.87;26.47;;;;;;;9.15;100.00;99242.34;5129359;28;20194;-54
2022/04/20 10:10:32;;;;;;;33.80;26.20;;;;;;;9.01;100.00;99247.06;5126634;28;20257;-53
2022/04/20 10:13:01;;;;;;;36.47;28.50;;;;;;;8.80;100.00;99234.69;5129130;28;20197;-56
2022/04/20 10:18:18;;;;;;;35.90;28.53;;;;;;;8.93;100.00;99223.97;5127152;28;20926;-57
2022/04/20 10:20:50;;;;;;;39.93;29.50;;;;;;;8.91;100.00;99219.75;5129117;28;20193;-56
2022/04/20 10:23:20;;;;;;;45.10;29.73;;;;;;;9.02;100.00;99212.53;5125008;28;20225;-57
2022/04/20 10:25:49;;;;;;;34.67;28.10;;;;;;;9.27;100.00;99207.50;5126863;28;20205;-57
2022/04/20 10:28:22;;;;;;;31.40;25.57;;;;;;;9.39;100.00;99204.56;5129181;28;20194;-56
2022/04/20 10:31:21;;;;;;;37.13;27.00;;;;;;;9.47;100.00;99215.56;5129067;28;20192;-56
2022/04/20 10:33:49;;;;;;;32.20;26.00;;;;;;;9.50;100.00;99206.84;5124601;28;20197;-53
2022/04/20 10:36:18;;;;;;;33.73;25.97;;;;;;;9.42;100.00;99194.13;5129082;28;20593;-53
2022/04/20 10:38:47;;;;;;;33.30;25.57;;;;;;;9.30;100.00;99192.72;5128777;28;20214;-53
2022/04/20 10:41:17;;;;;;;33.77;25.50;;;;;;;9.30;100.00;99194.47;5129173;27;20216;-53
2022/04/20 10:43:44;;;;;;;30.87;24.83;;;;;;;9.39;100.00;99196.78;5128720;28;20247;-53
2022/04/20 10:46:15;;;;;;;36.33;28.37;;;;;;;9.29;100.00;99195.34;5128765;28;20285;-53
2022/04/20 10:48:48;;;;;;;35.13;27.00;;;;;;;9.12;100.00;99190.69;5128797;27;20218;-54
2022/04/20 10:51:18;;;;;;;36.97;28.27;;;;;;;9.10;100.00;99201.06;5127146;28;20190;-56
2022/04/20 10:53:48;;;;;;;37.07;28.70;;;;;;;9.20;100.00;99188.72;5128933;28;20670;-56
2022/04/20 10:56:17;;;;;;;34.03;24.30;;;;;;;9.37;100.00;99186.47;5128942;28;20194;-56
2022/04/20 10:59:10;;;;;;;31.83;23.73;;;;;;;9.42;100.00;99187.19;5128695;28;20263;-56
2022/04/20 11:02:12;;;;;;;26.43;21.67;;;;;;;9.42;100.00;99176.84;5127105;28;20198;-53
2022/04/20 11:04:41;;;;;;;25.57;21.50;;;;;;;9.54;100.00;99169.59;5127614;28;20639;-53
2022/04/20 11:07:24;;;;;;;25.83;21.13;;;;;;;9.61;99.30;99155.53;5128830;27;20194;-53
2022/04/20 11:09:59;;;;;;;23.43;19.07;;;;;;;9.64;96.09;99158.06;5128277;27;20650;-52
2022/04/20 11:18:39;;;;;;;29.53;21.90;;;;;;;9.95;98.52;99140.63;5130437;27;20205;-54
2022/04/20 11:21:21;;;;;;;25.20;20.03;;;;;;;10.08;93.79;99131.56;5133337;27;20204;-53
2022/04/20 11:23:58;;;;;;;25.83;19.60;;;;;;;10.00;93.24;99128.38;5133704;27;20232;-53
2022/04/20 11:26:27;;;;;;;31.73;23.70;;;;;;;10.07;95.96;99132.47;5133504;27;20201;-54
2022/04/20 11:28:55;;;;;;;31.87;23.80;;;;;;;10.08;98.03;99104.78;5133845;27;20689;-53
2022/04/20 11:31:22;;;;;;;36.47;26.07;;;;;;;10.35;97.41;99116.03;5133739;27;20192;-53
2022/04/20 11:33:52;;;;;;;30.27;24.50;;;;;;;10.49;97.26;99117.25;5132853;27;20197;-53
2022/04/20 11:36:20;;;;;;;27.87;23.53;;;;;;;10.60;96.11;99109.09;5133597;27;20234;-53
2022/04/20 11:38:48;;;;;;;27.83;22.63;;;;;;;10.64;93.70;99112.41;5133749;27;20194;-53
2022/04/20 11:41:17;;;;;;;26.27;22.17;;;;;;;10.40;92.55;99099.38;5133860;27;20198;-54
2022/04/20 11:43:44;;;;;;;33.30;24.07;;;;;;;10.49;92.25;99101.69;5132771;27;20614;-52
2022/04/20 11:46:13;;;;;;;41.70;28.93;;;;;;;10.48;93.00;99099.97;5133427;27;20197;-54
2022/04/20 11:48:50;;;;;;;40.13;32.00;;;;;;;10.42;95.69;99105.38;5132721;27;20229;-54
2022/04/20 11:51:21;;;;;;;41.70;29.93;;;;;;;10.29;95.47;99098.91;5133453;27;20221;-53
2022/04/20 11:53:49;;;;;;;43.97;32.60;;;;;;;10.29;97.59;99093.72;5133356;27;20266;-52